createdAt,value
2015-10-31T00:00:10.868Z,74508
2015-10-31T00:00:23.197Z,74509
2015-10-31T00:00:35.525Z,74514
2015-10-31T00:00:47.887Z,74515
2015-10-31T00:01:00.231Z,74511
2015-10-31T00:01:12.543Z,74509
2015-10-31T00:01:24.887Z,74510
2015-10-31T00:01:37.231Z,74516
2015-10-31T00:01:49.578Z,74511
2015-10-31T00:02:01.953Z,74505
2015-10-31T00:02:14.343Z,74509
2015-10-31T00:02:26.687Z,74505
2015-10-31T00:02:39.018Z,74506
2015-10-31T00:02:51.346Z,74507
2015-10-31T00:03:03.690Z,74507
2015-10-31T00:03:16.049Z,74504
2015-10-31T00:03:28.377Z,74507
2015-10-31T00:03:40.692Z,74505
2015-10-31T00:03:53.036Z,74506
2015-10-31T00:04:05.379Z,74504
2015-10-31T00:04:17.723Z,74506
2015-10-31T00:04:30.083Z,74505
2015-10-31T00:04:42.445Z,74504
2015-10-31T00:04:54.804Z,74504
2015-10-31T00:05:07.132Z,74505
2015-10-31T00:05:19.461Z,74501
2015-10-31T00:05:31.789Z,74505
2015-10-31T00:05:44.135Z,74500
2015-10-31T00:05:56.479Z,74506
2015-10-31T00:06:08.807Z,74509
2015-10-31T00:06:21.135Z,74504
2015-10-31T00:06:33.479Z,74504
2015-10-31T00:06:45.825Z,74508
2015-10-31T00:06:58.184Z,74506
2015-10-31T00:07:10.544Z,74510
2015-10-31T00:07:22.872Z,74504
2015-10-31T00:07:35.200Z,74505
2015-10-31T00:07:47.548Z,74506
2015-10-31T00:07:59.876Z,74507
2015-10-31T00:08:12.204Z,74503
2015-10-31T00:08:24.548Z,74507
2015-10-31T00:08:36.891Z,74512
2015-10-31T00:08:49.237Z,74509
2015-10-31T00:09:01.581Z,74509
2015-10-31T00:09:13.940Z,74511
2015-10-31T00:09:26.268Z,74506
2015-10-31T00:09:38.597Z,74506
2015-10-31T00:09:50.928Z,74507
2015-10-31T00:10:03.256Z,74508
2015-10-31T00:10:15.600Z,74509
2015-10-31T00:10:27.943Z,74511
2015-10-31T00:10:40.303Z,74509
2015-10-31T00:10:52.664Z,74507
2015-10-31T00:11:05.023Z,74506
2015-10-31T00:11:17.352Z,74506
2015-10-31T00:11:29.680Z,74506
2015-10-31T00:11:42.008Z,74513
2015-10-31T00:11:54.340Z,74509
2015-10-31T00:12:06.668Z,74509
2015-10-31T00:12:18.996Z,74509
2015-10-31T00:12:31.324Z,74507
2015-10-31T00:12:43.668Z,74513
2015-10-31T00:12:56.014Z,74512
2015-10-31T00:13:08.373Z,74512
2015-10-31T00:13:20.733Z,74510
2015-10-31T00:13:33.092Z,74511
2015-10-31T00:13:45.420Z,74512
2015-10-31T00:13:57.751Z,74513
2015-10-31T00:14:10.079Z,74512
2015-10-31T00:14:22.407Z,74508
2015-10-31T00:14:34.751Z,74505
2015-10-31T00:14:47.097Z,74511
2015-10-31T00:14:59.441Z,74506
2015-10-31T00:15:11.784Z,74509
2015-10-31T00:15:24.128Z,74510
2015-10-31T00:15:36.488Z,74508
2015-10-31T00:15:48.850Z,74506
2015-10-31T00:16:01.194Z,74514
2015-10-31T00:16:13.522Z,74509
2015-10-31T00:16:25.866Z,74512
2015-10-31T00:16:38.178Z,74513
2015-10-31T00:16:50.509Z,74509
2015-10-31T00:17:02.853Z,74507
2015-10-31T00:17:15.181Z,74506
2015-10-31T00:17:27.525Z,74510
2015-10-31T00:17:39.869Z,74508
2015-10-31T00:17:52.215Z,74505
2015-10-31T00:18:04.559Z,74510
2015-10-31T00:18:16.903Z,74510
2015-10-31T00:18:29.231Z,74509
2015-10-31T00:18:41.543Z,74516
2015-10-31T00:18:53.874Z,74512
2015-10-31T00:19:06.202Z,74513
2015-10-31T00:19:18.530Z,74509
2015-10-31T00:19:30.889Z,74510
2015-10-31T00:19:43.217Z,74511
2015-10-31T00:19:55.579Z,74514
2015-10-31T00:20:07.969Z,74517
2015-10-31T00:20:20.344Z,74516
2015-10-31T00:20:32.672Z,74513
2015-10-31T00:20:45.001Z,74513
2015-10-31T00:20:57.333Z,74510
2015-10-31T00:21:09.661Z,74512
2015-10-31T00:21:22.005Z,74511
2015-10-31T00:21:34.333Z,74517
2015-10-31T00:21:46.647Z,74516
2015-10-31T00:21:59.007Z,74513
2015-10-31T00:22:11.350Z,74512
2015-10-31T00:22:23.710Z,74517
2015-10-31T00:22:36.100Z,74511
2015-10-31T00:22:48.447Z,74509
2015-10-31T00:23:00.775Z,74513
2015-10-31T00:23:13.103Z,74511
2015-10-31T00:23:25.431Z,74511
2015-10-31T00:23:37.760Z,74512
2015-10-31T00:23:50.091Z,74510
2015-10-31T00:24:02.419Z,74513
2015-10-31T00:24:14.763Z,74517
2015-10-31T00:24:27.106Z,74514
2015-10-31T00:24:39.466Z,74514
2015-10-31T00:24:51.827Z,74512
2015-10-31T00:25:04.202Z,74514
2015-10-31T00:25:16.530Z,74514
2015-10-31T00:25:28.858Z,74511
2015-10-31T00:25:41.186Z,74511
2015-10-31T00:25:53.518Z,74518
2015-10-31T00:26:05.861Z,74515
2015-10-31T00:26:18.189Z,74516
2015-10-31T00:26:30.518Z,74520
2015-10-31T00:26:42.861Z,74519
2015-10-31T00:26:55.207Z,74519
2015-10-31T00:27:07.613Z,74522
2015-10-31T00:27:19.957Z,74520
2015-10-31T00:27:32.285Z,74520
2015-10-31T00:27:44.613Z,74513
2015-10-31T00:27:56.944Z,74511
2015-10-31T00:28:09.273Z,74515
2015-10-31T00:28:21.601Z,74515
2015-10-31T00:28:33.929Z,74512
2015-10-31T00:28:46.288Z,74515
2015-10-31T00:28:58.619Z,74512
2015-10-31T00:29:10.963Z,74513
2015-10-31T00:29:23.322Z,74511
2015-10-31T00:29:35.682Z,74515
2015-10-31T00:29:48.044Z,74517
2015-10-31T00:30:00.404Z,74517
2015-10-31T00:30:12.732Z,74516
2015-10-31T00:30:24.919Z,74513
2015-10-31T00:30:37.247Z,74516
2015-10-31T00:30:49.577Z,74509
2015-10-31T00:31:01.906Z,74517
2015-10-31T00:31:14.249Z,74514
2015-10-31T00:31:26.452Z,74515
2015-10-31T00:31:38.781Z,74517
2015-10-31T00:31:51.096Z,74518
2015-10-31T00:32:03.424Z,74515
2015-10-31T00:32:15.752Z,74513
2015-10-31T00:32:28.096Z,74509
2015-10-31T00:32:40.440Z,74512
2015-10-31T00:32:52.067Z,74513
2015-10-31T00:33:04.426Z,74515
2015-10-31T00:33:16.786Z,74516
2015-10-31T00:33:29.129Z,74521
2015-10-31T00:33:41.457Z,74518
2015-10-31T00:33:53.805Z,74520
2015-10-31T00:34:06.149Z,74521
2015-10-31T00:34:17.774Z,74522
2015-10-31T00:34:30.102Z,74517
2015-10-31T00:34:42.446Z,74516
2015-10-31T00:34:54.792Z,74516
2015-10-31T00:35:07.135Z,74515
2015-10-31T00:35:19.495Z,74516
2015-10-31T00:35:31.854Z,74519
2015-10-31T00:35:44.229Z,74519
2015-10-31T00:35:56.575Z,74523
2015-10-31T00:36:08.903Z,74519
2015-10-31T00:36:21.090Z,74522
2015-10-31T00:36:33.262Z,74521
2015-10-31T00:36:45.590Z,74522
2015-10-31T00:36:57.923Z,74524
2015-10-31T00:37:10.251Z,74525
2015-10-31T00:37:22.594Z,74519
2015-10-31T00:37:34.938Z,74518
2015-10-31T00:37:46.579Z,74524
2015-10-31T00:37:58.956Z,74523
2015-10-31T00:38:11.284Z,74522
2015-10-31T00:38:23.628Z,74521
2015-10-31T00:38:35.940Z,74522
2015-10-31T00:38:48.271Z,74522
2015-10-31T00:39:00.599Z,74526
2015-10-31T00:39:12.943Z,74526
2015-10-31T00:39:25.271Z,74522
2015-10-31T00:39:37.615Z,74527
2015-10-31T00:39:49.946Z,74525
2015-10-31T00:40:02.306Z,74525
2015-10-31T00:40:14.665Z,74526
2015-10-31T00:40:27.024Z,74527
2015-10-31T00:41:05.871Z,74523
2015-10-31T00:41:18.215Z,74525
2015-10-31T00:41:30.527Z,74523
2015-10-31T00:41:42.855Z,74525
2015-10-31T00:41:55.201Z,74520
2015-10-31T00:42:07.561Z,74521
2015-10-31T00:42:19.873Z,74522
2015-10-31T00:42:32.232Z,74518
2015-10-31T00:42:44.576Z,74519
2015-10-31T00:42:56.939Z,74525
2015-10-31T00:43:09.298Z,74518
2015-10-31T00:43:21.626Z,74521
2015-10-31T00:43:33.954Z,74518
2015-10-31T00:43:46.282Z,74518
2015-10-31T00:43:58.612Z,74522
2015-10-31T00:44:10.956Z,74520
2015-10-31T00:44:23.284Z,74523
2015-10-31T00:44:35.612Z,74525
2015-10-31T00:44:47.959Z,74520
2015-10-31T00:45:00.303Z,74521
2015-10-31T00:45:12.678Z,74524
2015-10-31T00:45:25.037Z,74524
2015-10-31T00:45:37.365Z,74523
2015-10-31T00:45:49.697Z,74526
2015-10-31T00:46:02.040Z,74527
2015-10-31T00:46:14.368Z,74526
2015-10-31T00:46:26.697Z,74525
2015-10-31T00:46:39.025Z,74522
2015-10-31T00:46:51.371Z,74522
2015-10-31T00:47:03.715Z,74525
2015-10-31T00:47:16.059Z,74527
2015-10-31T00:47:28.418Z,74528
2015-10-31T00:47:40.778Z,74528
2015-10-31T00:47:53.139Z,74531
2015-10-31T00:48:05.467Z,74531
2015-10-31T00:48:17.795Z,74527
2015-10-31T00:48:30.123Z,74524
2015-10-31T00:48:41.748Z,74523
2015-10-31T00:48:54.080Z,74525
2015-10-31T00:49:06.408Z,74519
2015-10-31T00:49:18.751Z,74522
2015-10-31T00:49:30.392Z,74525
2015-10-31T00:49:42.736Z,74521
2015-10-31T00:49:55.114Z,74521
2015-10-31T00:50:07.473Z,74525
2015-10-31T00:50:19.817Z,74527
2015-10-31T00:50:32.145Z,74524
2015-10-31T00:50:44.473Z,74524
2015-10-31T00:50:56.803Z,74522
2015-10-31T00:51:09.131Z,74524
2015-10-31T00:51:21.460Z,74523
2015-10-31T00:51:33.803Z,74520
2015-10-31T00:51:46.131Z,74520
2015-10-31T00:51:58.478Z,74520
2015-10-31T00:52:10.822Z,74524
2015-10-31T00:52:23.181Z,74519
2015-10-31T00:52:35.556Z,74519
2015-10-31T00:52:47.884Z,74518
2015-10-31T00:53:00.216Z,74520
2015-10-31T00:53:12.559Z,74518
2015-10-31T00:53:24.887Z,74521
2015-10-31T00:53:37.216Z,74521
2015-10-31T00:53:49.531Z,74518
2015-10-31T00:54:01.875Z,74520
2015-10-31T00:54:14.219Z,74522
2015-10-31T00:54:26.547Z,74522
2015-10-31T00:54:38.890Z,74520
2015-10-31T00:54:51.252Z,74520
2015-10-31T00:55:03.596Z,74518
2015-10-31T00:55:15.221Z,74517
2015-10-31T00:55:27.533Z,74518
2015-10-31T00:55:39.861Z,74518
2015-10-31T00:55:51.489Z,74518
2015-10-31T00:56:03.817Z,74520
2015-10-31T00:56:16.145Z,74520
2015-10-31T00:56:28.474Z,74522
2015-10-31T00:56:40.802Z,74517
2015-10-31T00:56:53.147Z,74518
2015-10-31T00:57:05.507Z,74516
2015-10-31T00:57:17.866Z,74518
2015-10-31T00:57:30.069Z,74521
2015-10-31T00:57:42.429Z,74518
2015-10-31T00:57:54.775Z,74524
2015-10-31T00:58:07.104Z,74524
2015-10-31T00:58:19.447Z,74524
2015-10-31T00:58:31.775Z,74521
2015-10-31T00:58:44.104Z,74522
2015-10-31T00:58:56.467Z,74525
2015-10-31T00:59:08.795Z,74515
2015-10-31T00:59:21.154Z,74524
2015-10-31T00:59:33.514Z,74520
2015-10-31T00:59:45.873Z,74521
2015-10-31T00:59:58.235Z,74519
2015-10-31T01:00:10.594Z,74516
2015-10-31T01:00:22.922Z,74520
2015-10-31T01:00:35.250Z,74518
2015-10-31T01:00:47.578Z,74519
2015-10-31T01:00:59.908Z,74515
2015-10-31T01:01:12.237Z,74514
2015-10-31T01:01:24.565Z,74518
2015-10-31T01:01:36.877Z,74518
2015-10-31T01:01:49.221Z,74515
2015-10-31T01:02:01.568Z,74518
2015-10-31T01:02:13.911Z,74519
2015-10-31T01:02:26.271Z,74519
2015-10-31T01:02:38.630Z,74515
2015-10-31T01:02:50.990Z,74515
2015-10-31T01:03:03.321Z,74516
2015-10-31T01:03:14.930Z,74514
2015-10-31T01:03:27.274Z,74518
2015-10-31T01:03:39.602Z,74514
2015-10-31T01:03:51.930Z,74510
2015-10-31T01:04:04.277Z,74511
2015-10-31T01:04:16.605Z,74512
2015-10-31T01:04:28.949Z,74514
2015-10-31T01:04:41.292Z,74512
2015-10-31T01:04:52.949Z,74515
2015-10-31T01:05:05.295Z,74510
2015-10-31T01:05:17.624Z,74512
2015-10-31T01:05:29.967Z,74513
2015-10-31T01:05:42.358Z,74519
2015-10-31T01:05:54.686Z,74508
2015-10-31T01:06:07.032Z,74512
2015-10-31T01:06:19.376Z,74515
2015-10-31T01:06:31.735Z,74510
2015-10-31T01:06:44.094Z,74516
2015-10-31T01:06:56.438Z,74510
2015-10-31T01:07:08.785Z,74511
2015-10-31T01:07:21.097Z,74514
2015-10-31T01:07:33.425Z,74511
2015-10-31T01:07:45.754Z,74512
2015-10-31T01:07:58.066Z,74513
2015-10-31T01:08:10.413Z,74511
2015-10-31T01:08:22.757Z,74511
2015-10-31T01:08:34.382Z,74512
2015-10-31T01:08:46.741Z,74512
2015-10-31T01:08:59.100Z,74511
2015-10-31T01:09:11.463Z,74513
2015-10-31T01:09:23.822Z,74506
2015-10-31T01:09:36.150Z,74509
2015-10-31T01:09:48.478Z,74510
2015-10-31T01:10:00.806Z,74511
2015-10-31T01:10:13.152Z,74512
2015-10-31T01:10:25.480Z,74510
2015-10-31T01:10:37.808Z,74513
2015-10-31T01:10:50.152Z,74506
2015-10-31T01:11:02.496Z,74511
2015-10-31T01:11:14.858Z,74515
2015-10-31T01:11:27.218Z,74508
2015-10-31T01:11:39.593Z,74503
2015-10-31T01:11:51.921Z,74510
2015-10-31T01:12:04.249Z,74510
2015-10-31T01:12:16.596Z,74520
2015-10-31T01:12:28.768Z,74507
2015-10-31T01:12:40.393Z,74510
2015-10-31T01:12:52.721Z,74513
2015-10-31T01:13:05.064Z,74507
2015-10-31T01:13:17.426Z,74509
2015-10-31T01:13:29.785Z,74507
2015-10-31T01:13:42.113Z,74509
2015-10-31T01:13:54.441Z,74508
2015-10-31T01:14:06.770Z,74505
2015-10-31T01:14:19.101Z,74506
2015-10-31T01:14:31.429Z,74507
2015-10-31T01:14:43.757Z,74510
2015-10-31T01:14:56.085Z,74502
2015-10-31T01:15:08.288Z,74499
2015-10-31T01:15:19.916Z,74508
2015-10-31T01:15:32.276Z,74503
2015-10-31T01:15:44.651Z,74507
2015-10-31T01:15:57.026Z,74504
2015-10-31T01:16:09.385Z,74505
2015-10-31T01:16:21.715Z,74511
2015-10-31T01:16:34.043Z,74508
2015-10-31T01:16:46.387Z,74506
2015-10-31T01:16:58.715Z,74508
2015-10-31T01:17:11.074Z,74500
2015-10-31T01:17:23.406Z,74507
2015-10-31T01:17:35.749Z,74503
2015-10-31T01:17:48.077Z,74510
2015-10-31T01:18:00.437Z,74507
2015-10-31T01:18:12.796Z,74504
2015-10-31T01:18:25.159Z,74505
2015-10-31T01:18:37.518Z,74502
2015-10-31T01:18:49.862Z,74505
2015-10-31T01:19:02.205Z,74504
2015-10-31T01:19:14.534Z,74506
2015-10-31T01:19:26.879Z,74510
2015-10-31T01:19:39.207Z,74502
2015-10-31T01:19:51.536Z,74503
2015-10-31T01:20:03.879Z,74507
2015-10-31T01:20:16.207Z,74503
2015-10-31T01:20:28.571Z,74504
2015-10-31T01:20:40.915Z,74506
2015-10-31T01:20:53.274Z,74511
2015-10-31T01:21:05.602Z,74511
2015-10-31T01:21:17.930Z,74505
2015-10-31T01:21:30.260Z,74507
2015-10-31T01:21:42.588Z,74504
2015-10-31T01:21:54.917Z,74507
2015-10-31T01:22:07.260Z,74498
2015-10-31T01:22:19.588Z,74507
2015-10-31T01:22:31.935Z,74504
2015-10-31T01:22:44.295Z,74509
2015-10-31T01:23:15.763Z,74502
2015-10-31T01:23:28.079Z,74504
2015-10-31T01:23:40.407Z,74501
2015-10-31T01:23:52.735Z,74510
2015-10-31T01:24:05.063Z,74496
2015-10-31T01:24:17.423Z,74509
2015-10-31T01:24:29.754Z,74508
2015-10-31T01:24:42.113Z,74504
2015-10-31T01:24:54.472Z,74507
2015-10-31T01:25:06.832Z,74502
2015-10-31T01:25:19.191Z,74504
2015-10-31T01:25:31.507Z,74502
2015-10-31T01:25:43.850Z,74503
2015-10-31T01:25:56.179Z,74503
2015-10-31T01:26:08.491Z,74507
2015-10-31T01:26:20.835Z,74504
2015-10-31T01:26:33.165Z,74510
2015-10-31T01:26:45.493Z,74502
2015-10-31T01:26:57.837Z,74506
2015-10-31T01:27:10.196Z,74503
2015-10-31T01:27:22.587Z,74500
2015-10-31T01:27:34.934Z,74498
2015-10-31T01:27:47.246Z,74503
2015-10-31T01:27:59.590Z,74501
2015-10-31T01:28:11.918Z,74501
2015-10-31T01:28:24.246Z,74502
2015-10-31T01:28:36.577Z,74500
2015-10-31T01:28:48.921Z,74504
2015-10-31T01:29:01.280Z,74494
2015-10-31T01:29:13.624Z,74504
2015-10-31T01:29:25.937Z,74498
2015-10-31T01:29:38.252Z,74506
2015-10-31T01:29:50.424Z,74504
2015-10-31T01:30:02.783Z,74505
2015-10-31T01:30:15.111Z,74506
2015-10-31T01:30:27.440Z,74499
2015-10-31T01:30:39.785Z,74501
2015-10-31T01:30:52.113Z,74503
2015-10-31T01:31:04.457Z,74504
2015-10-31T01:31:16.817Z,74501
2015-10-31T01:31:29.145Z,74505
2015-10-31T01:31:41.491Z,74499
2015-10-31T01:31:53.804Z,74504
2015-10-31T01:32:06.148Z,74496
2015-10-31T01:32:18.476Z,74500
2015-10-31T01:32:30.116Z,74497
2015-10-31T01:32:42.432Z,74496
2015-10-31T01:32:54.807Z,74494
2015-10-31T01:33:07.166Z,74500
2015-10-31T01:33:19.494Z,74498
2015-10-31T01:33:31.823Z,74509
2015-10-31T01:33:44.153Z,74503
2015-10-31T01:33:56.465Z,74501
2015-10-31T01:34:08.793Z,74499
2015-10-31T01:34:21.121Z,74509
2015-10-31T01:34:33.450Z,74505
2015-10-31T01:34:45.796Z,74497
2015-10-31T01:34:58.124Z,74502
2015-10-31T01:35:09.765Z,74501
2015-10-31T01:35:22.124Z,74506
2015-10-31T01:35:34.468Z,74498
2015-10-31T01:35:46.814Z,74499
2015-10-31T01:35:59.126Z,74499
2015-10-31T01:36:11.455Z,74498
2015-10-31T01:36:23.767Z,74494
2015-10-31T01:36:36.095Z,74497
2015-10-31T01:36:48.412Z,74498
2015-10-31T01:37:00.740Z,74497
2015-10-31T01:37:13.084Z,74497
2015-10-31T01:37:25.412Z,74505
2015-10-31T01:37:37.615Z,74498
2015-10-31T01:37:49.976Z,74498
2015-10-31T01:38:02.336Z,74501
2015-10-31T01:38:13.945Z,74503
2015-10-31T01:38:26.273Z,74503
2015-10-31T01:38:38.601Z,74499
2015-10-31T01:38:50.932Z,74505
2015-10-31T01:39:03.245Z,74504
2015-10-31T01:39:15.573Z,74502
2015-10-31T01:39:27.917Z,74499
2015-10-31T01:39:40.260Z,74501
2015-10-31T01:39:52.607Z,74499
2015-10-31T01:40:04.951Z,74497
2015-10-31T01:40:17.279Z,74501
2015-10-31T01:40:29.623Z,74495
2015-10-31T01:40:41.953Z,74495
2015-10-31T01:40:54.265Z,74495
2015-10-31T01:41:06.609Z,74494
2015-10-31T01:41:18.937Z,74496
2015-10-31T01:41:31.265Z,74496
2015-10-31T01:41:43.612Z,74498
2015-10-31T01:41:55.940Z,74500
2015-10-31T01:42:08.284Z,74500
2015-10-31T01:42:20.659Z,74497
2015-10-31T01:42:33.003Z,74492
2015-10-31T01:42:45.365Z,74494
2015-10-31T01:42:57.693Z,74493
2015-10-31T01:43:10.021Z,74493
2015-10-31T01:43:22.334Z,74497
2015-10-31T01:43:34.662Z,74491
2015-10-31T01:43:46.977Z,74492
2015-10-31T01:43:58.633Z,74489
2015-10-31T01:44:10.977Z,74496
2015-10-31T01:44:23.305Z,74492
2015-10-31T01:44:35.523Z,74499
2015-10-31T01:44:47.714Z,74492
2015-10-31T01:45:00.073Z,74494
2015-10-31T01:45:12.401Z,74490
2015-10-31T01:45:24.714Z,74490
2015-10-31T01:45:37.058Z,74493
2015-10-31T01:45:49.404Z,74494
2015-10-31T01:46:01.733Z,74492
2015-10-31T01:46:14.061Z,74498
2015-10-31T01:46:26.389Z,74498
2015-10-31T01:46:38.733Z,74498
2015-10-31T01:46:51.064Z,74497
2015-10-31T01:47:03.423Z,74492
2015-10-31T01:47:15.782Z,74496
2015-10-31T01:47:28.142Z,74499
2015-10-31T01:47:40.501Z,74493
2015-10-31T01:47:52.832Z,74491
2015-10-31T01:48:05.160Z,74492
2015-10-31T01:48:17.489Z,74492
2015-10-31T01:48:29.817Z,74489
2015-10-31T01:48:42.162Z,74494
2015-10-31T01:48:54.491Z,74494
2015-10-31T01:49:06.834Z,74494
2015-10-31T01:49:19.178Z,74492
2015-10-31T01:49:31.522Z,74493
2015-10-31T01:49:43.883Z,74492
2015-10-31T01:49:56.227Z,74493
2015-10-31T01:50:08.586Z,74497
2015-10-31T01:50:20.914Z,74496
2015-10-31T01:50:33.243Z,74495
2015-10-31T01:50:45.622Z,74493
2015-10-31T01:50:57.950Z,74502
2015-10-31T01:51:10.293Z,74497
2015-10-31T01:51:22.622Z,74498
2015-10-31T01:51:34.981Z,74498
2015-10-31T01:51:47.311Z,74496
2015-10-31T01:51:59.639Z,74496
2015-10-31T01:52:11.967Z,74492
2015-10-31T01:52:23.592Z,74494
2015-10-31T01:52:35.952Z,74494
2015-10-31T01:52:48.283Z,74496
2015-10-31T01:53:00.486Z,74494
2015-10-31T01:53:12.861Z,74493
2015-10-31T01:53:25.205Z,74491
2015-10-31T01:53:37.548Z,74491
2015-10-31T01:53:49.880Z,74491
2015-10-31T01:54:02.208Z,74492
2015-10-31T01:54:14.520Z,74491
2015-10-31T01:54:26.145Z,74490
2015-10-31T01:54:38.473Z,74490
2015-10-31T01:54:50.803Z,74493
2015-10-31T01:55:03.147Z,74490
2015-10-31T01:55:15.491Z,74491
2015-10-31T01:55:27.866Z,74489
2015-10-31T01:55:40.225Z,74490
2015-10-31T01:55:52.571Z,74489
2015-10-31T01:56:04.915Z,74485
2015-10-31T01:56:17.243Z,74491
2015-10-31T01:56:29.587Z,74495
2015-10-31T01:56:41.899Z,74491
2015-10-31T01:56:54.246Z,74488
2015-10-31T01:57:06.574Z,74491
2015-10-31T01:57:18.918Z,74491
2015-10-31T01:57:31.262Z,74491
2015-10-31T01:57:43.608Z,74488
2015-10-31T01:57:55.983Z,74488
2015-10-31T01:58:08.343Z,74495
2015-10-31T01:58:20.686Z,74488
2015-10-31T01:58:33.015Z,74494
2015-10-31T01:58:45.346Z,74490
2015-10-31T01:58:57.658Z,74492
2015-10-31T01:59:09.986Z,74491
2015-10-31T01:59:22.330Z,74483
2015-10-31T01:59:34.658Z,74489
2015-10-31T01:59:46.989Z,74492
2015-10-31T01:59:59.317Z,74489
2015-10-31T02:00:11.677Z,74494
2015-10-31T02:00:24.036Z,74490
2015-10-31T02:00:36.380Z,74489
2015-10-31T02:00:48.710Z,74491
2015-10-31T02:01:01.054Z,74493
2015-10-31T02:01:12.679Z,74487
2015-10-31T02:01:25.007Z,74490
2015-10-31T02:01:37.351Z,74489
2015-10-31T02:01:49.696Z,74495
2015-10-31T02:02:02.056Z,74491
2015-10-31T02:02:14.431Z,74497
2015-10-31T02:02:26.775Z,74489
2015-10-31T02:02:39.118Z,74494
2015-10-31T02:02:51.449Z,74498
2015-10-31T02:03:03.778Z,74490
2015-10-31T02:03:16.090Z,74488
2015-10-31T02:03:28.418Z,74493
2015-10-31T02:03:40.746Z,74491
2015-10-31T02:03:53.077Z,74495
2015-10-31T02:04:05.406Z,74491
2015-10-31T02:04:17.749Z,74488
2015-10-31T02:04:30.093Z,74492
2015-10-31T02:04:42.452Z,74490
2015-10-31T02:04:54.783Z,74492
2015-10-31T02:05:07.095Z,74494
2015-10-31T02:05:19.408Z,74488
2015-10-31T02:05:31.736Z,74490
2015-10-31T02:05:44.051Z,74489
2015-10-31T02:05:56.364Z,74485
2015-10-31T02:06:08.707Z,74486
2015-10-31T02:06:21.051Z,74485
2015-10-31T02:06:33.411Z,74485
2015-10-31T02:06:45.757Z,74490
2015-10-31T02:06:58.085Z,74489
2015-10-31T02:07:09.695Z,74488
2015-10-31T02:07:21.320Z,74486
2015-10-31T02:07:33.664Z,74491
2015-10-31T02:07:45.995Z,74493
2015-10-31T02:07:58.338Z,74489
2015-10-31T02:08:10.682Z,74496
2015-10-31T02:08:23.026Z,74492
2015-10-31T02:08:35.354Z,74494
2015-10-31T02:08:47.701Z,74495
2015-10-31T02:09:00.013Z,74488
2015-10-31T02:09:12.341Z,74493
2015-10-31T02:09:24.685Z,74491
2015-10-31T02:09:37.029Z,74489
2015-10-31T02:09:49.391Z,74494
2015-10-31T02:10:01.751Z,74494
2015-10-31T02:10:14.110Z,74493
2015-10-31T02:10:26.469Z,74498
2015-10-31T02:10:38.798Z,74493
2015-10-31T02:10:51.128Z,74492
2015-10-31T02:11:03.456Z,74487
2015-10-31T02:11:15.784Z,74490
2015-10-31T02:11:28.128Z,74488
2015-10-31T02:11:40.471Z,74485
2015-10-31T02:11:52.833Z,74485
2015-10-31T02:12:05.192Z,74487
2015-10-31T02:12:17.520Z,74486
2015-10-31T02:12:29.833Z,74485
2015-10-31T02:12:42.161Z,74486
2015-10-31T02:12:53.789Z,74485
2015-10-31T02:13:06.117Z,74484
2015-10-31T02:13:18.430Z,74492
2015-10-31T02:13:30.601Z,74484
2015-10-31T02:13:42.945Z,74483
2015-10-31T02:13:55.276Z,74483
2015-10-31T02:14:07.651Z,74483
2015-10-31T02:14:20.026Z,74488
2015-10-31T02:14:32.245Z,74485
2015-10-31T02:14:44.561Z,74486
2015-10-31T02:14:56.904Z,74483
2015-10-31T02:15:09.232Z,74491
2015-10-31T02:15:21.561Z,74486
2015-10-31T02:15:33.889Z,74486
2015-10-31T02:15:46.219Z,74482
2015-10-31T02:15:58.563Z,74481
2015-10-31T02:16:10.891Z,74482
2015-10-31T02:16:23.234Z,74482
2015-10-31T02:16:35.594Z,74481
2015-10-31T02:16:47.934Z,74482
2015-10-31T02:17:00.262Z,74480
2015-10-31T02:17:12.590Z,74488
2015-10-31T02:17:24.918Z,74481
2015-10-31T02:17:37.246Z,74477
2015-10-31T02:17:49.568Z,74479
2015-10-31T02:18:01.881Z,74481
2015-10-31T02:18:14.224Z,74482
2015-10-31T02:18:26.568Z,74477
2015-10-31T02:18:38.928Z,74477
2015-10-31T02:18:51.281Z,74473
2015-10-31T02:19:03.625Z,74481
2015-10-31T02:19:15.984Z,74482
2015-10-31T02:19:28.312Z,74477
2015-10-31T02:19:40.640Z,74477
2015-10-31T02:19:52.962Z,74478
2015-10-31T02:20:05.291Z,74480
2015-10-31T02:20:17.619Z,74479
2015-10-31T02:20:29.931Z,74480
2015-10-31T02:20:42.259Z,74483
2015-10-31T02:20:54.597Z,74481
2015-10-31T02:21:06.925Z,74482
2015-10-31T02:21:19.285Z,74486
2015-10-31T02:21:31.644Z,74488
2015-10-31T02:21:43.969Z,74486
2015-10-31T02:21:56.297Z,74484
2015-10-31T02:22:08.625Z,74485
2015-10-31T02:22:20.953Z,74489
2015-10-31T02:22:33.282Z,74485
2015-10-31T02:22:45.625Z,74489
2015-10-31T02:22:57.969Z,74483
2015-10-31T02:23:10.313Z,74483
2015-10-31T02:23:22.672Z,74484
2015-10-31T02:23:35.000Z,74486
2015-10-31T02:23:47.327Z,74486
2015-10-31T02:23:59.656Z,74484
2015-10-31T02:24:11.968Z,74480
2015-10-31T02:24:24.296Z,74489
2015-10-31T02:24:36.640Z,74481
2015-10-31T02:24:48.983Z,74489
2015-10-31T02:25:01.311Z,74483
2015-10-31T02:25:13.670Z,74486
2015-10-31T02:25:26.030Z,74480
2015-10-31T02:25:38.389Z,74485
2015-10-31T02:25:50.780Z,74479
2015-10-31T02:26:03.123Z,74480
2015-10-31T02:26:15.451Z,74479
2015-10-31T02:26:27.780Z,74482
2015-10-31T02:26:40.123Z,74477
2015-10-31T02:26:52.451Z,74483
2015-10-31T02:27:04.780Z,74483
2015-10-31T02:27:17.108Z,74482
2015-10-31T02:27:29.451Z,74479
2015-10-31T02:27:41.795Z,74479
2015-10-31T02:27:54.157Z,74480
2015-10-31T02:28:06.516Z,74482
2015-10-31T02:28:18.891Z,74485
2015-10-31T02:28:31.266Z,74482
2015-10-31T02:28:43.596Z,74480
2015-10-31T02:28:55.924Z,74485
2015-10-31T02:29:08.252Z,74484
2015-10-31T02:29:20.580Z,74484
2015-10-31T02:29:32.940Z,74483
2015-10-31T02:29:45.269Z,74484
2015-10-31T02:29:57.613Z,74488
2015-10-31T02:30:09.941Z,74480
2015-10-31T02:30:22.285Z,74482
2015-10-31T02:30:34.644Z,74481
2015-10-31T02:30:47.021Z,74480
2015-10-31T02:30:59.349Z,74491
2015-10-31T02:31:11.677Z,74483
2015-10-31T02:31:24.005Z,74486
2015-10-31T02:31:36.333Z,74484
2015-10-31T02:31:48.679Z,74484
2015-10-31T02:32:01.007Z,74489
2015-10-31T02:32:13.335Z,74487
2015-10-31T02:32:25.679Z,74481
2015-10-31T02:32:38.023Z,74480
2015-10-31T02:32:50.417Z,74485
2015-10-31T02:33:02.776Z,74489
2015-10-31T02:33:15.135Z,74486
2015-10-31T02:33:27.338Z,74487
2015-10-31T02:33:39.667Z,74487
2015-10-31T02:33:51.997Z,74490
2015-10-31T02:34:04.325Z,74486
2015-10-31T02:34:16.637Z,74487
2015-10-31T02:34:28.965Z,74482
2015-10-31T02:34:41.294Z,74488
2015-10-31T02:34:53.639Z,74485
2015-10-31T02:35:05.999Z,74490
2015-10-31T02:35:18.374Z,74485
2015-10-31T02:35:30.030Z,74487
2015-10-31T02:35:42.389Z,74484
2015-10-31T02:35:54.720Z,74490
2015-10-31T02:36:07.049Z,74481
2015-10-31T02:36:19.377Z,74482
2015-10-31T02:36:31.720Z,74483
2015-10-31T02:36:44.051Z,74489
2015-10-31T02:36:56.379Z,74488
2015-10-31T02:37:08.722Z,74488
2015-10-31T02:37:21.066Z,74487
2015-10-31T02:37:33.410Z,74486
2015-10-31T02:37:45.771Z,74487
2015-10-31T02:37:58.115Z,74481
2015-10-31T02:38:10.443Z,74491
2015-10-31T02:38:22.771Z,74481
2015-10-31T02:38:35.115Z,74489
2015-10-31T02:38:47.446Z,74485
2015-10-31T02:38:59.790Z,74490
2015-10-31T02:39:12.118Z,74486
2015-10-31T02:39:24.462Z,74492